Beaver Creek, Canada
Current Conditions -  °F | °C
As of 3:53 AM on Saturday 25 Oct 2014 (Local Time) from PAOR Reporting Station
Light Snow Light Snow  
Wind Chill: 21°   Ceiling: 3500
Heat Index: 21°   Visibility: 3mi
Dew Point: 18°   Wind: 3mph
Humidity: 88%   Direction: 310°NW
Pressure: 29.9"   Gusts: NA
Location:  62.36°N, 140.87°W
Report Text: PAOR 251053Z 31003KT 3SM -SN OVC035 M06/M08 A2990 RMK AO2 SLP160 T10611078
Loading
Personal Weather Stations






























Interactive Weather Map
Tropical Storm Tracking
New forecast layout! Learn more

10-Day Weather Forecast

Advertisements
Track Severe Weather on mobile